Time;durP1;ratioP1;P1;durP2;ratioP2;P2;SDS_P1;SDS_P2;PMS_P1;PMS_P2;Temp;Humidity;BMP_temperature;BMP_pressure;BME280_temperature;BME280_humidity;BME280_pressure;Samples;Min_cycle;Max_cycle;Signal;HPM_P1;HPM_P2
2022/10/21 00:01:55;;;;;;;;;;;19.40;93.50;;;;;;5115177;28;19903;-39
2022/10/21 00:04:20;;;;;;;;;;;19.50;93.50;;;;;;5115099;28;20014;-39
2022/10/21 00:06:45;;;;;;;;;;;19.50;93.50;;;;;;5114621;28;20354;-40
2022/10/21 00:09:11;;;;;;;;;;;19.50;93.50;;;;;;5114843;28;19915;-39
2022/10/21 00:11:37;;;;;;;;;;;19.40;93.50;;;;;;5115116;28;19911;-39
2022/10/21 00:14:02;;;;;;;;;;;19.40;93.50;;;;;;5116833;27;19998;-38
2022/10/21 00:16:28;;;;;;;;;;;19.40;93.50;;;;;;5133934;27;19903;-41
2022/10/21 00:18:53;;;;;;;;;;;19.40;93.50;;;;;;5134007;27;19947;-40
2022/10/21 00:21:20;;;;;;;;;;;19.40;93.50;;;;;;5134657;27;19903;-39
2022/10/21 00:23:46;;;;;;;;;;;19.40;93.60;;;;;;5134328;27;20381;-39
2022/10/21 00:26:12;;;;;;;;;;;19.40;93.50;;;;;;5134436;27;19910;-39
2022/10/21 00:28:38;;;;;;;;;;;19.40;93.50;;;;;;5134505;27;19910;-39
2022/10/21 00:31:10;;;;;;;;;;;19.40;93.50;;;;;;5134649;27;19903;-39
2022/10/21 00:33:36;;;;;;;;;;;19.50;93.60;;;;;;5135345;27;19903;-39
2022/10/21 00:36:02;;;;;;;;;;;19.40;93.60;;;;;;5135318;27;20257;-39
2022/10/21 00:38:29;;;;;;;;;;;19.40;93.50;;;;;;5134804;28;19911;-39
2022/10/21 00:40:55;;;;;;;;;;;19.50;93.60;;;;;;5135167;28;19911;-39
2022/10/21 00:43:20;;;;;;;;;;;19.50;93.50;;;;;;5134699;28;19908;-39
2022/10/21 00:45:49;;;;;;;;;;;19.50;93.50;;;;;;5135132;28;19911;-38
2022/10/21 00:48:34;;;;;;;;;;;19.40;93.50;;;;;;5134859;28;20226;-38
2022/10/21 00:51:05;;;;;;;;;;;19.40;93.50;;;;;;5136298;27;19998;-39
2022/10/21 00:53:31;;;;;;;;;;;19.40;93.50;;;;;;5138975;27;20343;-39
2022/10/21 00:55:58;;;;;;;;;;;19.40;93.50;;;;;;5139322;27;19903;-39
2022/10/21 00:58:26;;;;;;;;;;;19.40;93.60;;;;;;5139016;27;20337;-39
2022/10/21 01:00:53;;;;;;;;;;;19.40;93.50;;;;;;5139282;27;19904;-38
2022/10/21 01:03:19;;;;;;;;;;;19.40;93.50;;;;;;5138943;27;20298;-39
2022/10/21 01:05:45;;;;;;;;;;;19.40;93.60;;;;;;5138937;27;19957;-39
2022/10/21 01:08:11;;;;;;;;;;;19.40;93.60;;;;;;5138845;27;19919;-38
2022/10/21 01:10:36;;;;;;;;;;;19.40;93.60;;;;;;5137800;27;19918;-39
2022/10/21 01:13:02;;;;;;;;;;;19.40;93.60;;;;;;5138746;27;19910;-39
2022/10/21 01:15:32;;;;;;;;;;;19.40;93.60;;;;;;5138972;27;19982;-39
2022/10/21 01:18:00;;;;;;;;;;;19.40;93.60;;;;;;5138536;27;19903;-38
2022/10/21 01:20:26;;;;;;;;;;;19.40;93.60;;;;;;5139203;27;20377;-39
2022/10/21 01:23:06;;;;;;;;;;;19.40;93.60;;;;;;5138763;27;19903;-39
2022/10/21 01:25:50;;;;;;;;;;;19.40;93.60;;;;;;5138789;27;20360;-39
2022/10/21 01:28:34;;;;;;;;;;;19.40;93.80;;;;;;5138417;27;20284;-39
2022/10/21 01:31:03;;;;;;;;;;;19.40;93.60;;;;;;5138378;27;20401;-39
2022/10/21 01:33:28;;;;;;;;;;;19.40;93.60;;;;;;5138385;27;19903;-39
2022/10/21 01:36:17;;;;;;;;;;;19.40;93.60;;;;;;5138632;27;19903;-39
2022/10/21 01:38:45;;;;;;;;;;;19.40;93.60;;;;;;5127513;27;19912;-38
2022/10/21 01:41:23;;;;;;;;;;;19.40;93.60;;;;;;5138484;27;19950;-39
2022/10/21 01:43:49;;;;;;;;;;;19.40;93.60;;;;;;5138203;27;20350;-39
2022/10/21 01:46:18;;;;;;;;;;;19.40;93.70;;;;;;5138358;27;19910;-38
2022/10/21 01:48:47;;;;;;;;;;;19.40;93.60;;;;;;5138084;27;19953;-38
2022/10/21 01:51:14;;;;;;;;;;;19.40;93.60;;;;;;5138160;27;19994;-39
2022/10/21 01:53:42;;;;;;;;;;;19.40;93.60;;;;;;5137926;27;19908;-39
2022/10/21 01:56:08;;;;;;;;;;;19.40;93.60;;;;;;5119798;27;19904;-39
2022/10/21 01:58:34;;;;;;;;;;;19.40;93.60;;;;;;5137742;27;19964;-38
2022/10/21 02:01:00;;;;;;;;;;;19.40;93.60;;;;;;5137798;27;19994;-39
2022/10/21 02:03:31;;;;;;;;;;;19.40;93.60;;;;;;5138049;27;20261;-38
2022/10/21 02:05:57;;;;;;;;;;;19.40;93.60;;;;;;5137708;27;19904;-39
2022/10/21 02:08:22;;;;;;;;;;;19.40;93.70;;;;;;5138045;27;20023;-39
2022/10/21 02:10:49;;;;;;;;;;;19.40;93.70;;;;;;5138030;27;19903;-39
2022/10/21 02:13:17;;;;;;;;;;;19.40;93.70;;;;;;5136198;27;20092;-38
2022/10/21 02:15:43;;;;;;;;;;;19.40;93.70;;;;;;5137873;27;20006;-39
2022/10/21 02:18:16;;;;;;;;;;;19.40;93.70;;;;;;5138041;27;19958;-38
2022/10/21 02:20:43;;;;;;;;;;;19.40;93.70;;;;;;5137437;27;20346;-39
2022/10/21 02:23:11;;;;;;;;;;;19.40;93.70;;;;;;5137440;27;19904;-39
2022/10/21 02:25:37;;;;;;;;;;;19.40;93.70;;;;;;5137614;27;20040;-39
2022/10/21 02:28:03;;;;;;;;;;;19.40;93.70;;;;;;5137320;27;19903;-38
2022/10/21 02:30:38;;;;;;;;;;;19.40;93.70;;;;;;5137344;27;19903;-39
2022/10/21 02:33:16;;;;;;;;;;;19.40;93.70;;;;;;5137512;27;20338;-39
2022/10/21 02:35:41;;;;;;;;;;;19.40;93.70;;;;;;5137511;27;19903;-39
2022/10/21 02:38:25;;;;;;;;;;;19.40;93.70;;;;;;5137315;27;20406;-39
2022/10/21 02:40:53;;;;;;;;;;;19.40;93.70;;;;;;5137452;27;19908;-39
2022/10/21 02:43:38;;;;;;;;;;;19.40;93.70;;;;;;5137328;27;19903;-39
2022/10/21 02:46:08;;;;;;;;;;;19.40;93.70;;;;;;5136626;27;19904;-38
2022/10/21 02:48:34;;;;;;;;;;;19.40;93.70;;;;;;5137183;27;19948;-39
2022/10/21 02:51:02;;;;;;;;;;;19.40;93.70;;;;;;5137011;27;20385;-38
2022/10/21 02:53:27;;;;;;;;;;;19.40;93.70;;;;;;5137133;27;19903;-39
2022/10/21 02:55:53;;;;;;;;;;;19.40;93.70;;;;;;5136742;27;19910;-39
2022/10/21 02:58:18;;;;;;;;;;;19.40;93.70;;;;;;5136870;27;19918;-38
2022/10/21 03:00:44;;;;;;;;;;;19.40;93.70;;;;;;5136972;27;19999;-39
2022/10/21 03:03:09;;;;;;;;;;;19.40;93.70;;;;;;5136644;27;20239;-38
2022/10/21 03:05:34;;;;;;;;;;;19.40;93.70;;;;;;5136838;27;19994;-39
2022/10/21 03:08:00;;;;;;;;;;;19.40;93.70;;;;;;5137068;27;19926;-38
2022/10/21 03:10:25;;;;;;;;;;;19.40;93.70;;;;;;5136413;27;19905;-39
2022/10/21 03:12:51;;;;;;;;;;;19.40;93.70;;;;;;5136682;27;19904;-39
2022/10/21 03:15:16;;;;;;;;;;;19.40;93.70;;;;;;5117823;27;19903;-39
2022/10/21 03:17:42;;;;;;;;;;;19.40;93.70;;;;;;5136519;27;19903;-38
2022/10/21 03:20:07;;;;;;;;;;;19.40;93.70;;;;;;5136160;27;20362;-39
2022/10/21 03:22:33;;;;;;;;;;;19.40;93.70;;;;;;5136433;27;19904;-38
2022/10/21 03:24:59;;;;;;;;;;;19.40;93.70;;;;;;5136392;27;19903;-39
2022/10/21 03:27:25;;;;;;;;;;;19.40;93.80;;;;;;5136112;27;20255;-39
2022/10/21 03:29:50;;;;;;;;;;;19.40;93.80;;;;;;5136375;27;19960;-39
2022/10/21 03:32:16;;;;;;;;;;;19.40;93.80;;;;;;5136022;27;19907;-39
2022/10/21 03:34:41;;;;;;;;;;;19.30;93.80;;;;;;5136195;27;19911;-39
2022/10/21 03:37:07;;;;;;;;;;;19.30;93.70;;;;;;5135898;27;20346;-39
2022/10/21 03:39:32;;;;;;;;;;;19.40;93.80;;;;;;5136130;27;19927;-39
2022/10/21 03:41:58;;;;;;;;;;;19.40;93.80;;;;;;5136228;27;19946;-39
2022/10/21 03:44:23;;;;;;;;;;;19.40;93.70;;;;;;5135765;27;19918;-38
2022/10/21 03:46:48;;;;;;;;;;;19.30;93.70;;;;;;5136014;27;20394;-39
2022/10/21 03:49:14;;;;;;;;;;;19.40;93.70;;;;;;5135493;27;19911;-39
2022/10/21 03:51:40;;;;;;;;;;;19.40;93.70;;;;;;5135930;27;19907;-38
2022/10/21 03:54:05;;;;;;;;;;;19.30;93.70;;;;;;5135519;27;19925;-39
2022/10/21 03:56:31;;;;;;;;;;;19.40;93.80;;;;;;5135548;27;19950;-39
2022/10/21 03:58:56;;;;;;;;;;;19.30;93.70;;;;;;5135443;27;19911;-39
2022/10/21 04:01:22;;;;;;;;;;;19.30;93.70;;;;;;5136061;27;20244;-40
2022/10/21 04:03:47;;;;;;;;;;;19.30;93.70;;;;;;5135316;27;19995;-38
2022/10/21 04:06:13;;;;;;;;;;;19.30;93.70;;;;;;5135213;27;19910;-39
2022/10/21 04:08:38;;;;;;;;;;;19.30;93.70;;;;;;5135431;27;19990;-38
2022/10/21 04:11:04;;;;;;;;;;;19.30;93.70;;;;;;5135278;27;19903;-39
2022/10/21 04:13:30;;;;;;;;;;;19.30;93.70;;;;;;5116895;27;19937;-39
2022/10/21 04:15:56;;;;;;;;;;;19.30;93.70;;;;;;5135105;27;20357;-39
2022/10/21 04:18:22;;;;;;;;;;;19.30;93.70;;;;;;5135278;27;19911;-39
2022/10/21 04:20:47;;;;;;;;;;;19.30;93.70;;;;;;5135386;27;19911;-38
2022/10/21 04:23:13;;;;;;;;;;;19.30;93.80;;;;;;5135232;27;19911;-39
2022/10/21 04:25:38;;;;;;;;;;;19.30;93.70;;;;;;5134325;27;20394;-39
2022/10/21 04:28:04;;;;;;;;;;;19.30;93.70;;;;;;5134872;27;19908;-38
2022/10/21 04:30:29;;;;;;;;;;;19.30;93.70;;;;;;5134984;27;19910;-39
2022/10/21 04:32:55;;;;;;;;;;;19.30;93.70;;;;;;5134721;27;20002;-39
2022/10/21 04:35:20;;;;;;;;;;;19.40;93.70;;;;;;5134775;27;19908;-39
2022/10/21 04:37:46;;;;;;;;;;;19.40;93.70;;;;;;5134740;27;20455;-38
2022/10/21 04:40:11;;;;;;;;;;;19.30;93.70;;;;;;5134995;27;20006;-39
2022/10/21 04:42:36;;;;;;;;;;;19.30;93.80;;;;;;5134784;28;19908;-39
2022/10/21 04:45:02;;;;;;;;;;;19.30;93.80;;;;;;5134945;28;19934;-38
2022/10/21 04:47:28;;;;;;;;;;;19.30;93.80;;;;;;5134592;28;19904;-39
2022/10/21 04:49:53;;;;;;;;;;;19.30;93.70;;;;;;5135068;28;19910;-39
2022/10/21 04:52:18;;;;;;;;;;;19.30;93.80;;;;;;5134679;28;20339;-39
2022/10/21 04:54:44;;;;;;;;;;;19.30;93.80;;;;;;5134633;28;19910;-39
2022/10/21 04:57:09;;;;;;;;;;;19.30;93.80;;;;;;5134423;28;19957;-39
2022/10/21 04:59:35;;;;;;;;;;;19.30;93.80;;;;;;5134784;28;20223;-39
2022/10/21 05:02:00;;;;;;;;;;;19.30;93.80;;;;;;5134769;28;20329;-38
2022/10/21 05:04:26;;;;;;;;;;;19.30;93.80;;;;;;5134439;28;19907;-39
2022/10/21 05:06:51;;;;;;;;;;;19.30;93.70;;;;;;5134109;28;19963;-38
2022/10/21 05:09:17;;;;;;;;;;;19.30;93.80;;;;;;5134852;28;20251;-38
2022/10/21 05:11:42;;;;;;;;;;;19.30;93.80;;;;;;5134780;28;20006;-38
2022/10/21 05:14:08;;;;;;;;;;;19.30;93.80;;;;;;5134366;28;20340;-38
2022/10/21 05:16:33;;;;;;;;;;;19.30;93.80;;;;;;5134598;28;19912;-39
2022/10/21 05:18:58;;;;;;;;;;;19.30;93.80;;;;;;5134598;28;19950;-39
2022/10/21 05:21:24;;;;;;;;;;;19.30;93.80;;;;;;5134640;28;19907;-39
2022/10/21 05:23:49;;;;;;;;;;;19.30;93.80;;;;;;5134693;28;19914;-39
2022/10/21 05:26:15;;;;;;;;;;;19.30;93.80;;;;;;5134403;28;19911;-39
2022/10/21 05:28:40;;;;;;;;;;;19.30;93.80;;;;;;5122535;28;19911;-39
2022/10/21 05:31:06;;;;;;;;;;;19.30;93.80;;;;;;5113827;28;19994;-38
2022/10/21 05:33:31;;;;;;;;;;;19.30;93.80;;;;;;5111445;28;20419;-38
2022/10/21 05:35:59;;;;;;;;;;;19.30;93.80;;;;;;5113394;28;20359;-39
2022/10/21 05:38:25;;;;;;;;;;;19.30;93.80;;;;;;5116909;28;19922;-39
2022/10/21 05:40:51;;;;;;;;;;;19.20;93.80;;;;;;5115440;28;20006;-39
2022/10/21 05:43:16;;;;;;;;;;;19.30;93.90;;;;;;5117228;28;20006;-39
2022/10/21 05:45:42;;;;;;;;;;;19.30;93.80;;;;;;5117750;28;20397;-39
2022/10/21 05:48:07;;;;;;;;;;;19.30;93.80;;;;;;5098749;28;19915;-39
2022/10/21 05:50:32;;;;;;;;;;;19.30;93.90;;;;;;5116486;28;19911;-39
2022/10/21 05:52:58;;;;;;;;;;;19.30;93.90;;;;;;5113557;28;19934;-40
2022/10/21 05:55:23;;;;;;;;;;;19.30;93.90;;;;;;5116430;28;19912;-39
2022/10/21 05:57:49;;;;;;;;;;;19.30;93.90;;;;;;5115077;28;19908;-38
2022/10/21 06:00:14;;;;;;;;;;;19.30;93.90;;;;;;5112952;27;19928;-38
2022/10/21 06:02:40;;;;;;;;;;;19.30;93.90;;;;;;5116940;28;20371;-38
2022/10/21 06:05:05;;;;;;;;;;;19.30;93.90;;;;;;5116706;28;19908;-39
2022/10/21 06:07:31;;;;;;;;;;;19.30;94.00;;;;;;5116951;28;20053;-39
2022/10/21 06:09:56;;;;;;;;;;;19.30;94.00;;;;;;5116243;28;19912;-38
2022/10/21 06:12:22;;;;;;;;;;;19.20;94.10;;;;;;5116608;28;19915;-38
2022/10/21 06:14:47;;;;;;;;;;;19.30;94.40;;;;;;5114187;28;19916;-38
2022/10/21 06:17:13;;;;;;;;;;;19.30;94.10;;;;;;5114274;28;20376;-38
2022/10/21 06:19:38;;;;;;;;;;;19.30;94.10;;;;;;5111930;28;19927;-39
2022/10/21 06:22:04;;;;;;;;;;;19.30;94.10;;;;;;5114528;28;19919;-39
2022/10/21 06:24:29;;;;;;;;;;;19.30;94.10;;;;;;5098510;27;19916;-44
2022/10/21 06:26:55;;;;;;;;;;;19.20;94.10;;;;;;5122530;27;19977;-44
2022/10/21 06:29:20;;;;;;;;;;;19.20;94.20;;;;;;5116187;27;19916;-42
2022/10/21 06:31:45;;;;;;;;;;;19.30;94.30;;;;;;5114880;27;19919;-42
2022/10/21 06:34:11;;;;;;;;;;;19.30;94.40;;;;;;5113062;27;20261;-43
2022/10/21 06:36:39;;;;;;;;;;;19.30;94.40;;;;;;5097037;28;19912;-42
2022/10/21 06:39:05;;;;;;;;;;;19.30;94.40;;;;;;5114119;27;19920;-42
2022/10/21 06:41:31;;;;;;;;;;;19.30;94.40;;;;;;5111758;27;19922;-43
2022/10/21 06:43:56;;;;;;;;;;;19.30;94.40;;;;;;5115877;28;20374;-46
2022/10/21 06:46:22;;;;;;;;;;;19.30;94.50;;;;;;5097261;28;19958;-45
2022/10/21 06:48:47;;;;;;;;;;;19.30;94.50;;;;;;5111662;28;19912;-45
2022/10/21 06:51:14;;;;;;;;;;;19.30;94.40;;;;;;5114953;28;20354;-43
2022/10/21 06:53:40;;;;;;;;;;;19.30;94.40;;;;;;5112907;28;20089;-43
2022/10/21 06:56:07;;;;;;;;;;;19.30;94.40;;;;;;5113018;28;20003;-42
2022/10/21 06:58:33;;;;;;;;;;;19.30;94.40;;;;;;5126585;27;19911;-42
2022/10/21 07:01:04;;;;;;;;;;;19.30;94.40;;;;;;5114265;27;19914;-43
2022/10/21 07:03:30;;;;;;;;;;;19.30;94.40;;;;;;5114666;28;19990;-44
2022/10/21 07:05:58;;;;;;;;;;;19.30;94.50;;;;;;5114536;28;20331;-43
2022/10/21 07:08:25;;;;;;;;;;;19.30;94.40;;;;;;5115175;28;19923;-43
2022/10/21 07:10:50;;;;;;;;;;;19.30;94.40;;;;;;5113485;28;19911;-42
2022/10/21 07:13:16;;;;;;;;;;;19.30;94.40;;;;;;5114744;28;19914;-44
2022/10/21 07:15:41;;;;;;;;;;;19.30;94.50;;;;;;5115956;28;19904;-43
2022/10/21 07:18:06;;;;;;;;;;;19.30;94.50;;;;;;5096525;28;20339;-44
2022/10/21 07:20:33;;;;;;;;;;;19.30;94.50;;;;;;5115330;28;19903;-45
2022/10/21 07:22:58;;;;;;;;;;;19.40;94.50;;;;;;5114552;28;20358;-49
2022/10/21 07:25:23;;;;;;;;;;;19.30;94.50;;;;;;5115712;28;19968;-45
2022/10/21 07:27:49;;;;;;;;;;;19.30;94.50;;;;;;5096263;28;20227;-41
2022/10/21 07:30:14;;;;;;;;;;;19.40;94.50;;;;;;5115335;28;19910;-46
2022/10/21 07:32:40;;;;;;;;;;;19.40;94.50;;;;;;5119580;27;19919;-45
2022/10/21 07:35:05;;;;;;;;;;;19.30;94.50;;;;;;5115328;28;20406;-45
2022/10/21 07:37:31;;;;;;;;;;;19.30;94.50;;;;;;5113290;27;19919;-42
2022/10/21 07:39:56;;;;;;;;;;;19.40;94.50;;;;;;5115158;28;20354;-44
2022/10/21 07:42:23;;;;;;;;;;;19.40;94.50;;;;;;5114091;28;19908;-43
2022/10/21 07:44:49;;;;;;;;;;;19.40;94.50;;;;;;5115296;28;20250;-44
2022/10/21 07:47:14;;;;;;;;;;;19.40;94.50;;;;;;5112265;28;19960;-43
2022/10/21 07:49:40;;;;;;;;;;;19.40;94.50;;;;;;5113210;28;20290;-43
2022/10/21 07:52:05;;;;;;;;;;;19.40;94.50;;;;;;5113480;28;19912;-46
2022/10/21 07:54:31;;;;;;;;;;;19.40;94.50;;;;;;5110106;28;19912;-49
2022/10/21 07:56:57;;;;;;;;;;;19.40;94.60;;;;;;5113425;28;20362;-43
2022/10/21 07:59:22;;;;;;;;;;;19.40;94.40;;;;;;5111552;28;19992;-42
2022/10/21 08:01:48;;;;;;;;;;;19.40;94.40;;;;;;5110609;28;19920;-48
2022/10/21 08:04:15;;;;;;;;;;;19.40;94.40;;;;;;5111865;28;19911;-45
2022/10/21 08:06:41;;;;;;;;;;;19.40;94.40;;;;;;5112555;28;20357;-45
2022/10/21 08:09:07;;;;;;;;;;;19.40;94.40;;;;;;5093782;28;19912;-44
2022/10/21 08:11:32;;;;;;;;;;;19.40;94.40;;;;;;5113788;28;19911;-46
2022/10/21 08:13:58;;;;;;;;;;;19.40;94.40;;;;;;5112148;28;20412;-45
2022/10/21 08:16:24;;;;;;;;;;;19.40;94.40;;;;;;5114449;28;19907;-44
2022/10/21 08:18:49;;;;;;;;;;;19.40;94.40;;;;;;5112861;28;20442;-45
2022/10/21 08:21:15;;;;;;;;;;;19.40;94.40;;;;;;5112536;28;19916;-46
2022/10/21 08:23:41;;;;;;;;;;;19.40;94.40;;;;;;5112388;28;19990;-46
2022/10/21 08:26:09;;;;;;;;;;;19.40;94.40;;;;;;5111389;27;20251;-43
2022/10/21 08:28:34;;;;;;;;;;;19.40;94.40;;;;;;5112825;28;19912;-44
2022/10/21 08:31:26;;;;;;;;;;;19.40;94.40;;;;;;5112813;28;19941;-45
2022/10/21 08:33:51;;;;;;;;;;;19.50;94.40;;;;;;5101686;28;19943;-42
2022/10/21 08:36:19;;;;;;;;;;;19.50;94.50;;;;;;5113156;28;19954;-45
2022/10/21 08:38:44;;;;;;;;;;;19.50;94.40;;;;;;5112344;28;19945;-46
2022/10/21 08:41:17;;;;;;;;;;;19.50;94.40;;;;;;5113266;28;19915;-44
2022/10/21 08:43:42;;;;;;;;;;;19.50;94.30;;;;;;5112016;28;19971;-51
2022/10/21 08:46:23;;;;;;;;;;;19.50;94.40;;;;;;5112795;28;19943;-47
2022/10/21 08:48:52;;;;;;;;;;;19.50;94.40;;;;;;5112036;28;19919;-47
2022/10/21 08:51:21;;;;;;;;;;;19.50;94.60;;;;;;5113239;28;19998;-45
2022/10/21 08:53:47;;;;;;;;;;;19.60;94.40;;;;;;5110970;28;20378;-45
2022/10/21 08:56:13;;;;;;;;;;;19.50;94.40;;;;;;5112499;28;19918;-46
2022/10/21 08:58:39;;;;;;;;;;;19.50;94.40;;;;;;5113583;28;19960;-44
2022/10/21 09:01:10;;;;;;;;;;;19.50;94.40;;;;;;5112952;28;19919;-45
2022/10/21 09:03:44;;;;;;;;;;;19.50;94.40;;;;;;5111689;28;19911;-43
2022/10/21 09:06:13;;;;;;;;;;;19.50;94.40;;;;;;5107424;28;19919;-46
2022/10/21 09:08:45;;;;;;;;;;;19.50;94.40;;;;;;5112057;28;19915;-43
2022/10/21 09:11:18;;;;;;;;;;;19.50;94.40;;;;;;5113286;28;19919;-45
2022/10/21 09:13:49;;;;;;;;;;;19.50;94.40;;;;;;5117931;28;19907;-43
2022/10/21 09:16:29;;;;;;;;;;;19.50;94.40;;;;;;5116523;28;19912;-43
2022/10/21 09:19:10;;;;;;;;;;;19.50;94.40;;;;;;5115592;27;20355;-44
2022/10/21 09:21:54;;;;;;;;;;;19.50;94.40;;;;;;5117651;28;19908;-45
2022/10/21 09:24:28;;;;;;;;;;;19.50;94.60;;;;;;5114973;28;19919;-43
2022/10/21 09:26:54;;;;;;;;;;;19.50;94.40;;;;;;5112536;28;19911;-49
2022/10/21 09:29:24;;;;;;;;;;;19.50;94.40;;;;;;5116595;28;19908;-44
2022/10/21 09:31:50;;;;;;;;;;;19.60;94.40;;;;;;5115365;28;19924;-43
2022/10/21 09:34:24;;;;;;;;;;;19.50;94.40;;;;;;5113117;28;20383;-48
2022/10/21 09:36:51;;;;;;;;;;;19.60;94.40;;;;;;5113799;28;19912;-43
2022/10/21 09:39:23;;;;;;;;;;;19.50;94.40;;;;;;5116893;28;19923;-44
2022/10/21 09:41:50;;;;;;;;;;;19.60;94.40;;;;;;5117770;28;19908;-46
2022/10/21 09:44:16;;;;;;;;;;;19.60;94.40;;;;;;5115704;28;19964;-47
2022/10/21 09:46:46;;;;;;;;;;;19.60;94.40;;;;;;5116176;27;19911;-45
2022/10/21 09:49:28;;;;;;;;;;;19.60;94.40;;;;;;5114786;28;19912;-47
2022/10/21 09:51:55;;;;;;;;;;;19.60;94.40;;;;;;5112795;27;19934;-45
2022/10/21 09:54:22;;;;;;;;;;;19.60;94.40;;;;;;5115716;28;19961;-48
2022/10/21 09:56:49;;;;;;;;;;;19.60;94.40;;;;;;5117093;28;19911;-45
2022/10/21 09:59:18;;;;;;;;;;;19.60;94.40;;;;;;5114529;27;20014;-46
2022/10/21 10:01:44;;;;;;;;;;;19.60;94.30;;;;;;5112015;28;20351;-46
2022/10/21 10:04:19;;;;;;;;;;;19.60;94.30;;;;;;5116603;28;19912;-50
2022/10/21 10:06:45;;;;;;;;;;;19.60;94.30;;;;;;5098476;28;19958;-45
2022/10/21 10:09:16;;;;;;;;;;;19.50;94.20;;;;;;5114147;28;20389;-43
2022/10/21 10:11:52;;;;;;;;;;;19.50;94.20;;;;;;5113120;28;19919;-48
2022/10/21 10:14:35;;;;;;;;;;;19.60;94.20;;;;;;5114830;28;19908;-45
2022/10/21 10:17:19;;;;;;;;;;;19.50;94.20;;;;;;5115696;28;19912;-46
2022/10/21 10:20:03;;;;;;;;;;;19.60;94.20;;;;;;5114008;28;20018;-47
2022/10/21 10:22:40;;;;;;;;;;;19.60;94.20;;;;;;5116003;28;20282;-50
2022/10/21 10:25:17;;;;;;;;;;;19.60;94.20;;;;;;5114638;28;20258;-48
2022/10/21 10:27:53;;;;;;;;;;;19.60;94.20;;;;;;5116424;28;19904;-49
2022/10/21 10:30:20;;;;;;;;;;;19.60;94.20;;;;;;5114369;28;19908;-55
2022/10/21 10:32:46;;;;;;;;;;;19.60;94.20;;;;;;5124797;27;19908;-46
2022/10/21 10:35:19;;;;;;;;;;;19.60;94.20;;;;;;5116205;28;20330;-48
2022/10/21 10:37:45;;;;;;;;;;;19.60;94.20;;;;;;5112882;28;19937;-47
2022/10/21 10:40:16;;;;;;;;;;;19.60;94.20;;;;;;5112887;28;19920;-50
2022/10/21 10:42:44;;;;;;;;;;;19.60;94.20;;;;;;5116102;28;19964;-47
2022/10/21 10:45:18;;;;;;;;;;;19.60;94.20;;;;;;5114259;28;19945;-47
2022/10/21 10:47:54;;;;;;;;;;;19.60;94.20;;;;;;5115076;28;19911;-46
2022/10/21 10:50:38;;;;;;;;;;;19.60;94.30;;;;;;5115766;28;19942;-47
2022/10/21 10:53:20;;;;;;;;;;;19.60;94.20;;;;;;5114651;28;19907;-45
2022/10/21 10:55:48;;;;;;;;;;;19.60;94.30;;;;;;5096641;28;19908;-45
2022/10/21 10:58:13;;;;;;;;;;;19.60;94.20;;;;;;5097466;28;19910;-51
2022/10/21 11:00:41;;;;;;;;;;;19.60;94.20;;;;;;5095651;28;19908;-48
2022/10/21 11:03:08;;;;;;;;;;;19.60;94.30;;;;;;5114653;28;19908;-54
2022/10/21 11:05:35;;;;;;;;;;;19.60;94.30;;;;;;5113676;28;19904;-46
2022/10/21 11:08:04;;;;;;;;;;;19.60;94.20;;;;;;5115107;28;19924;-53
2022/10/21 11:10:34;;;;;;;;;;;19.60;94.50;;;;;;5112108;28;20292;-45
2022/10/21 11:13:01;;;;;;;;;;;19.60;94.30;;;;;;5115616;28;19908;-46
2022/10/21 11:15:45;;;;;;;;;;;19.60;94.30;;;;;;5109158;28;19912;-49
2022/10/21 11:18:16;;;;;;;;;;;19.60;94.20;;;;;;5092327;28;19922;-47
2022/10/21 11:20:49;;;;;;;;;;;19.60;94.20;;;;;;5114899;28;19923;-43
2022/10/21 11:23:33;;;;;;;;;;;19.60;94.30;;;;;;5115176;28;19912;-48
2022/10/21 11:26:11;;;;;;;;;;;19.60;94.30;;;;;;5112886;28;19969;-47
2022/10/21 11:28:59;;;;;;;;;;;19.60;94.30;;;;;;5113090;28;19961;-48
2022/10/21 11:31:30;;;;;;;;;;;19.60;94.30;;;;;;5094236;28;20203;-43
2022/10/21 11:34:02;;;;;;;;;;;19.60;94.20;;;;;;5092257;28;20338;-43
2022/10/21 11:36:31;;;;;;;;;;;19.60;94.20;;;;;;5091980;28;20428;-45
2022/10/21 11:39:15;;;;;;;;;;;19.60;94.20;;;;;;5074732;28;19966;-45
2022/10/21 11:42:01;;;;;;;;;;;19.60;94.20;;;;;;5094523;28;19912;-46
2022/10/21 11:44:46;;;;;;;;;;;19.60;94.20;;;;;;5079937;28;19958;-43
2022/10/21 11:47:24;;;;;;;;;;;19.50;94.20;;;;;;5094747;28;19908;-47
2022/10/21 11:49:52;;;;;;;;;;;19.60;94.20;;;;;;5094487;28;19982;-46
2022/10/21 11:52:23;;;;;;;;;;;19.60;94.40;;;;;;5093742;28;19908;-44
2022/10/21 11:54:51;;;;;;;;;;;19.50;94.10;;;;;;5093935;28;19908;-44
2022/10/21 11:57:26;;;;;;;;;;;19.60;94.10;;;;;;5075694;28;19908;-43
2022/10/21 11:59:51;;;;;;;;;;;19.50;94.10;;;;;;5094024;28;19942;-45
2022/10/21 12:02:23;;;;;;;;;;;19.50;94.10;;;;;;5093812;28;19998;-43
2022/10/21 12:05:08;;;;;;;;;;;19.60;94.10;;;;;;5094079;28;19914;-45
2022/10/21 12:07:42;;;;;;;;;;;19.50;94.10;;;;;;5094254;28;19920;-44
2022/10/21 12:10:21;;;;;;;;;;;19.60;94.10;;;;;;5093954;28;19908;-46
2022/10/21 12:12:48;;;;;;;;;;;19.50;94.00;;;;;;5094342;28;19908;-45
2022/10/21 12:15:19;;;;;;;;;;;19.50;94.00;;;;;;5093853;28;19947;-44
2022/10/21 12:17:46;;;;;;;;;;;19.50;94.00;;;;;;5094327;28;19908;-44
2022/10/21 12:20:18;;;;;;;;;;;19.50;94.00;;;;;;5093685;28;19924;-45
2022/10/21 12:22:43;;;;;;;;;;;19.50;94.00;;;;;;5107979;28;19947;-46
2022/10/21 12:25:12;;;;;;;;;;;19.50;94.00;;;;;;5113824;28;19959;-46
2022/10/21 12:27:49;;;;;;;;;;;19.50;93.90;;;;;;5092248;28;19958;-45
2022/10/21 12:30:15;;;;;;;;;;;19.60;94.00;;;;;;5112713;28;19911;-45
2022/10/21 12:32:47;;;;;;;;;;;19.50;94.00;;;;;;5093963;28;19912;-49
2022/10/21 12:35:24;;;;;;;;;;;19.60;94.00;;;;;;5112809;28;20006;-43
2022/10/21 12:37:49;;;;;;;;;;;19.60;94.00;;;;;;5113120;28;19961;-43
2022/10/21 12:40:16;;;;;;;;;;;19.50;93.90;;;;;;5113585;28;19919;-46
2022/10/21 12:42:44;;;;;;;;;;;19.60;94.00;;;;;;5114210;28;19968;-44
2022/10/21 12:45:26;;;;;;;;;;;19.50;94.00;;;;;;5111903;28;19911;-49
2022/10/21 12:47:52;;;;;;;;;;;19.60;94.00;;;;;;5112107;28;20263;-46
2022/10/21 12:50:23;;;;;;;;;;;19.50;94.00;;;;;;5110270;28;19912;-46
2022/10/21 12:53:10;;;;;;;;;;;19.60;94.00;;;;;;5111319;28;19912;-46
2022/10/21 12:55:39;;;;;;;;;;;19.60;94.00;;;;;;5111771;28;19908;-48
2022/10/21 12:58:15;;;;;;;;;;;19.60;94.00;;;;;;5094763;28;19934;-45
2022/10/21 13:00:47;;;;;;;;;;;19.60;94.10;;;;;;5109321;28;19931;-44
2022/10/21 13:03:17;;;;;;;;;;;19.50;94.00;;;;;;5106352;28;19912;-45
2022/10/21 13:05:46;;;;;;;;;;;19.60;94.10;;;;;;5113145;28;19911;-44
2022/10/21 13:08:26;;;;;;;;;;;19.60;94.10;;;;;;5112499;28;19920;-46
2022/10/21 13:11:03;;;;;;;;;;;19.60;94.10;;;;;;5100356;28;19916;-47
2022/10/21 13:13:36;;;;;;;;;;;19.60;94.10;;;;;;5113937;28;19965;-44
2022/10/21 13:16:14;;;;;;;;;;;19.60;94.10;;;;;;5111994;28;19915;-43
2022/10/21 13:18:58;;;;;;;;;;;19.60;94.10;;;;;;5112196;28;20310;-43
2022/10/21 13:21:24;;;;;;;;;;;19.60;94.10;;;;;;5093543;28;19916;-43
2022/10/21 13:23:51;;;;;;;;;;;19.60;94.10;;;;;;5110565;28;20010;-44
2022/10/21 13:26:23;;;;;;;;;;;19.60;94.10;;;;;;5112157;28;19970;-43
2022/10/21 13:28:56;;;;;;;;;;;19.60;94.10;;;;;;5113901;28;19951;-45
2022/10/21 13:31:21;;;;;;;;;;;19.60;94.10;;;;;;5110042;28;19969;-44
2022/10/21 13:33:51;;;;;;;;;;;19.60;94.30;;;;;;5112194;28;20016;-45
2022/10/21 13:36:23;;;;;;;;;;;19.60;94.10;;;;;;5111189;28;19951;-49
2022/10/21 13:38:51;;;;;;;;;;;19.60;94.10;;;;;;5111836;28;19977;-47
2022/10/21 13:41:22;;;;;;;;;;;19.60;94.10;;;;;;5112657;28;19972;-44
2022/10/21 13:43:58;;;;;;;;;;;19.60;94.10;;;;;;5112901;28;19960;-46
2022/10/21 13:46:25;;;;;;;;;;;19.60;94.10;;;;;;5113279;28;19908;-44
2022/10/21 13:48:51;;;;;;;;;;;19.60;94.10;;;;;;5112234;28;19923;-47
2022/10/21 13:51:20;;;;;;;;;;;19.60;94.10;;;;;;5110661;28;19916;-47
2022/10/21 13:53:46;;;;;;;;;;;19.60;94.10;;;;;;5110966;28;20378;-47
2022/10/21 13:56:17;;;;;;;;;;;19.60;94.10;;;;;;5112093;28;19919;-47
2022/10/21 13:58:43;;;;;;;;;;;19.60;94.00;;;;;;5112935;28;20308;-46
2022/10/21 14:01:10;;;;;;;;;;;19.60;94.00;;;;;;5116499;28;19915;-48
2022/10/21 14:03:36;;;;;;;;;;;19.60;94.00;;;;;;5113573;28;19915;-50
2022/10/21 14:06:04;;;;;;;;;;;19.60;93.90;;;;;;5113240;28;20251;-47
2022/10/21 14:08:48;;;;;;;;;;;19.50;93.90;;;;;;5098372;28;19926;-46
2022/10/21 14:11:17;;;;;;;;;;;19.60;93.90;;;;;;5116198;28;19947;-45
2022/10/21 14:13:43;;;;;;;;;;;19.60;93.80;;;;;;5114245;28;19939;-47
2022/10/21 14:16:11;;;;;;;;;;;19.60;93.80;;;;;;5114389;28;20010;-45
2022/10/21 14:18:38;;;;;;;;;;;19.60;93.90;;;;;;5115662;28;20317;-47
2022/10/21 14:21:05;;;;;;;;;;;19.60;93.90;;;;;;5096673;28;19912;-45
2022/10/21 14:23:30;;;;;;;;;;;19.60;94.00;;;;;;5113832;28;19922;-46
2022/10/21 14:26:01;;;;;;;;;;;19.50;93.90;;;;;;5116807;28;20002;-47